Terminal Aerodrome Forecast
Issued by NWS Charleston, WV

Current Version | Previous Version | Graphics & Text | Print | Product List | Glossary On
Versions: 1 2 3 4 5 6 7 8 9 10 11 12 13 14 15 16 17 18 19 20 21 22 23 24 25
126
FTUS41 KRLX 031744
TAFEKN
TAF
KEKN 031744Z 0318/0418 30006KT P6SM -SHRA BKN025
     FM032200 29006KT P6SM BKN035
     FM040200 VRB03KT P6SM BKN030
     FM040500 00000KT 5SM BR BKN010
     FM040700 00000KT 2SM BR BKN008
     FM041400 00000KT 4SM BR BKN015
     FM041500 VRB02KT P6SM BKN025
     FM041600 24003KT P6SM BKN035=

USA.gov is the U.S. government's official web portal to all federal, state and local government web resources and services.